sensor_id;sensor_type;location;lat;lon;timestamp;temperature;humidity
17795;DHT22;9021;50.882;4.326;2022-11-23T00:02:00;10.40;99.90
17795;DHT22;9021;50.882;4.326;2022-11-23T00:04:25;10.30;99.90
17795;DHT22;9021;50.882;4.326;2022-11-23T00:06:51;10.30;99.90
17795;DHT22;9021;50.882;4.326;2022-11-23T00:09:17;10.30;99.90
17795;DHT22;9021;50.882;4.326;2022-11-23T00:11:42;10.20;99.90
17795;DHT22;9021;50.882;4.326;2022-11-23T00:14:08;10.20;99.90
17795;DHT22;9021;50.882;4.326;2022-11-23T00:16:33;10.30;99.90
17795;DHT22;9021;50.882;4.326;2022-11-23T00:19:00;10.10;99.90
17795;DHT22;9021;50.882;4.326;2022-11-23T00:21:28;10.10;99.90
17795;DHT22;9021;50.882;4.326;2022-11-23T00:23:54;10.10;99.90
17795;DHT22;9021;50.882;4.326;2022-11-23T00:26:20;10.20;99.90
17795;DHT22;9021;50.882;4.326;2022-11-23T00:28:46;10.30;99.90
17795;DHT22;9021;50.882;4.326;2022-11-23T00:31:13;10.40;99.90
17795;DHT22;9021;50.882;4.326;2022-11-23T00:33:40;10.30;99.90
17795;DHT22;9021;50.882;4.326;2022-11-23T00:36:12;10.30;99.90
17795;DHT22;9021;50.882;4.326;2022-11-23T00:38:39;10.30;99.90
17795;DHT22;9021;50.882;4.326;2022-11-23T00:41:10;10.30;99.90
17795;DHT22;9021;50.882;4.326;2022-11-23T00:43:36;10.30;99.90
17795;DHT22;9021;50.882;4.326;2022-11-23T00:48:31;10.40;99.90
17795;DHT22;9021;50.882;4.326;2022-11-23T00:50:56;10.40;99.90
17795;DHT22;9021;50.882;4.326;2022-11-23T00:53:22;10.40;99.90
17795;DHT22;9021;50.882;4.326;2022-11-23T00:55:52;10.30;99.90
17795;DHT22;9021;50.882;4.326;2022-11-23T00:58:17;10.30;99.90
17795;DHT22;9021;50.882;4.326;2022-11-23T01:00:43;10.20;99.90
17795;DHT22;9021;50.882;4.326;2022-11-23T01:03:09;10.20;99.90
17795;DHT22;9021;50.882;4.326;2022-11-23T01:05:36;10.10;99.90
17795;DHT22;9021;50.882;4.326;2022-11-23T01:08:02;10.20;99.90
17795;DHT22;9021;50.882;4.326;2022-11-23T01:10:28;10.30;99.90
17795;DHT22;9021;50.882;4.326;2022-11-23T01:12:54;10.30;99.90
17795;DHT22;9021;50.882;4.326;2022-11-23T01:15:19;10.30;99.90
17795;DHT22;9021;50.882;4.326;2022-11-23T01:17:45;10.40;99.90
17795;DHT22;9021;50.882;4.326;2022-11-23T01:20:11;10.20;99.90
17795;DHT22;9021;50.882;4.326;2022-11-23T01:22:36;10.20;99.90
17795;DHT22;9021;50.882;4.326;2022-11-23T01:25:02;10.20;99.90
17795;DHT22;9021;50.882;4.326;2022-11-23T01:27:28;10.10;99.90
17795;DHT22;9021;50.882;4.326;2022-11-23T01:29:53;10.30;99.90
17795;DHT22;9021;50.882;4.326;2022-11-23T01:32:19;10.30;99.90
17795;DHT22;9021;50.882;4.326;2022-11-23T01:34:44;10.20;99.90
17795;DHT22;9021;50.882;4.326;2022-11-23T01:37:10;10.20;99.90
17795;DHT22;9021;50.882;4.326;2022-11-23T01:39:36;10.10;99.90
17795;DHT22;9021;50.882;4.326;2022-11-23T01:42:02;10.20;99.90
17795;DHT22;9021;50.882;4.326;2022-11-23T01:44:33;10.20;99.90
17795;DHT22;9021;50.882;4.326;2022-11-23T01:47:01;10.20;99.90
17795;DHT22;9021;50.882;4.326;2022-11-23T01:49:32;10.20;99.90
17795;DHT22;9021;50.882;4.326;2022-11-23T01:52:02;10.30;99.90
17795;DHT22;9021;50.882;4.326;2022-11-23T01:54:37;10.30;99.90
17795;DHT22;9021;50.882;4.326;2022-11-23T01:57:06;10.40;99.90
17795;DHT22;9021;50.882;4.326;2022-11-23T01:59:35;10.40;99.90
17795;DHT22;9021;50.882;4.326;2022-11-23T02:02:01;10.40;99.90
17795;DHT22;9021;50.882;4.326;2022-11-23T02:04:32;10.40;99.90
17795;DHT22;9021;50.882;4.326;2022-11-23T02:07:00;10.40;99.90
17795;DHT22;9021;50.882;4.326;2022-11-23T02:09:30;10.40;99.90
17795;DHT22;9021;50.882;4.326;2022-11-23T02:11:56;10.40;99.90
17795;DHT22;9021;50.882;4.326;2022-11-23T02:14:22;10.40;99.90
17795;DHT22;9021;50.882;4.326;2022-11-23T02:16:48;10.40;99.90
17795;DHT22;9021;50.882;4.326;2022-11-23T02:19:21;10.30;99.90
17795;DHT22;9021;50.882;4.326;2022-11-23T02:21:49;10.30;99.90
17795;DHT22;9021;50.882;4.326;2022-11-23T02:24:25;10.30;99.90
17795;DHT22;9021;50.882;4.326;2022-11-23T02:26:53;10.20;99.90
17795;DHT22;9021;50.882;4.326;2022-11-23T02:29:24;10.20;99.90
17795;DHT22;9021;50.882;4.326;2022-11-23T02:31:50;10.40;99.90
17795;DHT22;9021;50.882;4.326;2022-11-23T02:34:16;10.40;99.90
17795;DHT22;9021;50.882;4.326;2022-11-23T02:36:47;10.30;99.90
17795;DHT22;9021;50.882;4.326;2022-11-23T02:41:48;10.30;99.90
17795;DHT22;9021;50.882;4.326;2022-11-23T02:47:04;10.30;99.90
17795;DHT22;9021;50.882;4.326;2022-11-23T02:49:30;10.40;99.90
17795;DHT22;9021;50.882;4.326;2022-11-23T02:51:56;10.40;99.90
17795;DHT22;9021;50.882;4.326;2022-11-23T02:54:22;10.40;99.90
17795;DHT22;9021;50.882;4.326;2022-11-23T02:56:47;10.30;99.90
17795;DHT22;9021;50.882;4.326;2022-11-23T02:59:13;10.40;99.90
17795;DHT22;9021;50.882;4.326;2022-11-23T03:01:39;10.20;99.90
17795;DHT22;9021;50.882;4.326;2022-11-23T03:04:05;10.30;99.90
17795;DHT22;9021;50.882;4.326;2022-11-23T03:06:31;10.10;99.90
17795;DHT22;9021;50.882;4.326;2022-11-23T03:08:56;10.30;99.90
17795;DHT22;9021;50.882;4.326;2022-11-23T03:11:22;10.30;99.90
17795;DHT22;9021;50.882;4.326;2022-11-23T03:13:48;10.30;99.90
17795;DHT22;9021;50.882;4.326;2022-11-23T03:16:13;10.20;99.90
17795;DHT22;9021;50.882;4.326;2022-11-23T03:18:41;10.20;99.90
17795;DHT22;9021;50.882;4.326;2022-11-23T03:21:06;10.20;99.90
17795;DHT22;9021;50.882;4.326;2022-11-23T03:23:33;10.30;99.90
17795;DHT22;9021;50.882;4.326;2022-11-23T03:25:59;10.30;99.90
17795;DHT22;9021;50.882;4.326;2022-11-23T03:28:25;10.30;99.90
17795;DHT22;9021;50.882;4.326;2022-11-23T03:30:51;10.20;99.90
17795;DHT22;9021;50.882;4.326;2022-11-23T03:33:17;10.20;99.90
17795;DHT22;9021;50.882;4.326;2022-11-23T03:35:43;10.10;99.90
17795;DHT22;9021;50.882;4.326;2022-11-23T03:38:09;10.20;99.90
17795;DHT22;9021;50.882;4.326;2022-11-23T03:40:35;10.20;99.90
17795;DHT22;9021;50.882;4.326;2022-11-23T03:43:00;10.20;99.90
17795;DHT22;9021;50.882;4.326;2022-11-23T03:45:26;10.30;99.90
17795;DHT22;9021;50.882;4.326;2022-11-23T03:47:51;10.30;99.90
17795;DHT22;9021;50.882;4.326;2022-11-23T03:50:17;10.30;99.90
17795;DHT22;9021;50.882;4.326;2022-11-23T03:52:43;10.40;99.90
17795;DHT22;9021;50.882;4.326;2022-11-23T03:55:09;10.30;99.90
17795;DHT22;9021;50.882;4.326;2022-11-23T03:57:34;10.30;99.90
17795;DHT22;9021;50.882;4.326;2022-11-23T04:00:00;10.20;99.90
17795;DHT22;9021;50.882;4.326;2022-11-23T04:02:26;10.20;99.90
17795;DHT22;9021;50.882;4.326;2022-11-23T04:04:51;10.20;99.90
17795;DHT22;9021;50.882;4.326;2022-11-23T04:07:17;10.20;99.90
17795;DHT22;9021;50.882;4.326;2022-11-23T04:09:43;10.10;99.90
17795;DHT22;9021;50.882;4.326;2022-11-23T04:12:09;10.00;99.90
17795;DHT22;9021;50.882;4.326;2022-11-23T04:14:34;9.90;99.90
17795;DHT22;9021;50.882;4.326;2022-11-23T04:17:00;10.00;99.90
17795;DHT22;9021;50.882;4.326;2022-11-23T04:19:28;10.00;99.90
17795;DHT22;9021;50.882;4.326;2022-11-23T04:21:54;10.00;99.90
17795;DHT22;9021;50.882;4.326;2022-11-23T04:24:20;9.90;99.90
17795;DHT22;9021;50.882;4.326;2022-11-23T04:26:46;9.80;99.90
17795;DHT22;9021;50.882;4.326;2022-11-23T04:29:12;9.70;99.90
17795;DHT22;9021;50.882;4.326;2022-11-23T04:31:37;9.90;99.90
17795;DHT22;9021;50.882;4.326;2022-11-23T04:34:03;9.90;99.90
17795;DHT22;9021;50.882;4.326;2022-11-23T04:36:29;9.90;99.90
17795;DHT22;9021;50.882;4.326;2022-11-23T04:38:55;10.10;99.90
17795;DHT22;9021;50.882;4.326;2022-11-23T04:41:21;10.00;99.90
17795;DHT22;9021;50.882;4.326;2022-11-23T04:43:48;9.90;99.90
17795;DHT22;9021;50.882;4.326;2022-11-23T04:46:13;10.00;99.90
17795;DHT22;9021;50.882;4.326;2022-11-23T04:48:39;9.80;99.90
17795;DHT22;9021;50.882;4.326;2022-11-23T04:51:05;9.80;99.90
17795;DHT22;9021;50.882;4.326;2022-11-23T04:53:31;9.80;99.90
17795;DHT22;9021;50.882;4.326;2022-11-23T04:55:56;9.80;99.90
17795;DHT22;9021;50.882;4.326;2022-11-23T04:58:22;9.80;99.90
17795;DHT22;9021;50.882;4.326;2022-11-23T05:00:48;9.80;99.90
17795;DHT22;9021;50.882;4.326;2022-11-23T05:03:13;9.70;99.90
17795;DHT22;9021;50.882;4.326;2022-11-23T05:05:40;9.70;99.90
17795;DHT22;9021;50.882;4.326;2022-11-23T05:08:06;9.80;99.90
17795;DHT22;9021;50.882;4.326;2022-11-23T05:10:32;9.70;99.90
17795;DHT22;9021;50.882;4.326;2022-11-23T05:12:58;9.70;99.90
17795;DHT22;9021;50.882;4.326;2022-11-23T05:15:24;9.60;99.90
17795;DHT22;9021;50.882;4.326;2022-11-23T05:17:52;9.50;99.90
17795;DHT22;9021;50.882;4.326;2022-11-23T05:20:18;9.50;99.90
17795;DHT22;9021;50.882;4.326;2022-11-23T05:22:44;9.50;99.90
17795;DHT22;9021;50.882;4.326;2022-11-23T05:25:09;9.50;99.90
17795;DHT22;9021;50.882;4.326;2022-11-23T05:27:35;9.60;99.90
17795;DHT22;9021;50.882;4.326;2022-11-23T05:30:01;9.50;99.90
17795;DHT22;9021;50.882;4.326;2022-11-23T05:32:27;9.50;99.90
17795;DHT22;9021;50.882;4.326;2022-11-23T05:34:53;9.50;99.90
17795;DHT22;9021;50.882;4.326;2022-11-23T05:37:19;9.40;99.90
17795;DHT22;9021;50.882;4.326;2022-11-23T05:39:44;9.30;99.90
17795;DHT22;9021;50.882;4.326;2022-11-23T05:42:10;9.30;99.90
17795;DHT22;9021;50.882;4.326;2022-11-23T05:44:35;9.30;99.90
17795;DHT22;9021;50.882;4.326;2022-11-23T05:47:01;9.30;99.90
17795;DHT22;9021;50.882;4.326;2022-11-23T05:49:26;9.20;99.90
17795;DHT22;9021;50.882;4.326;2022-11-23T05:51:52;9.10;99.90
17795;DHT22;9021;50.882;4.326;2022-11-23T05:54:18;9.10;99.90
17795;DHT22;9021;50.882;4.326;2022-11-23T05:56:43;9.10;99.90
17795;DHT22;9021;50.882;4.326;2022-11-23T05:59:10;9.10;99.90
17795;DHT22;9021;50.882;4.326;2022-11-23T06:01:36;9.20;99.90
17795;DHT22;9021;50.882;4.326;2022-11-23T06:04:02;9.20;99.90
17795;DHT22;9021;50.882;4.326;2022-11-23T06:06:28;9.10;99.90
17795;DHT22;9021;50.882;4.326;2022-11-23T06:08:53;9.10;99.90
17795;DHT22;9021;50.882;4.326;2022-11-23T06:11:19;9.00;99.90
17795;DHT22;9021;50.882;4.326;2022-11-23T06:13:48;9.00;99.90
17795;DHT22;9021;50.882;4.326;2022-11-23T06:16:13;8.90;99.90
17795;DHT22;9021;50.882;4.326;2022-11-23T06:18:39;8.80;99.90
17795;DHT22;9021;50.882;4.326;2022-11-23T06:21:05;8.80;99.90
17795;DHT22;9021;50.882;4.326;2022-11-23T06:23:30;8.80;99.90
17795;DHT22;9021;50.882;4.326;2022-11-23T06:26:00;8.90;99.90
17795;DHT22;9021;50.882;4.326;2022-11-23T06:28:26;8.90;99.90
17795;DHT22;9021;50.882;4.326;2022-11-23T06:30:53;8.90;99.90
17795;DHT22;9021;50.882;4.326;2022-11-23T06:33:19;8.90;99.90
17795;DHT22;9021;50.882;4.326;2022-11-23T06:35:55;9.00;99.90
17795;DHT22;9021;50.882;4.326;2022-11-23T06:38:21;9.00;99.90
17795;DHT22;9021;50.882;4.326;2022-11-23T06:40:46;8.90;99.90
17795;DHT22;9021;50.882;4.326;2022-11-23T06:43:12;8.80;99.90
17795;DHT22;9021;50.882;4.326;2022-11-23T06:45:38;8.70;99.90
17795;DHT22;9021;50.882;4.326;2022-11-23T06:48:04;8.70;99.90
17795;DHT22;9021;50.882;4.326;2022-11-23T06:50:30;8.80;99.90
17795;DHT22;9021;50.882;4.326;2022-11-23T06:52:56;8.90;99.90
17795;DHT22;9021;50.882;4.326;2022-11-23T06:55:22;8.80;99.90
17795;DHT22;9021;50.882;4.326;2022-11-23T06:57:48;8.70;99.90
17795;DHT22;9021;50.882;4.326;2022-11-23T07:00:14;8.70;99.90
17795;DHT22;9021;50.882;4.326;2022-11-23T07:02:40;8.50;99.90
17795;DHT22;9021;50.882;4.326;2022-11-23T07:05:05;8.50;99.90
17795;DHT22;9021;50.882;4.326;2022-11-23T07:07:31;8.50;99.90
17795;DHT22;9021;50.882;4.326;2022-11-23T07:09:57;8.50;99.90
17795;DHT22;9021;50.882;4.326;2022-11-23T07:12:22;8.50;99.90
17795;DHT22;9021;50.882;4.326;2022-11-23T07:14:48;8.40;99.90
17795;DHT22;9021;50.882;4.326;2022-11-23T07:17:14;8.30;99.90
17795;DHT22;9021;50.882;4.326;2022-11-23T07:19:39;8.30;99.90
17795;DHT22;9021;50.882;4.326;2022-11-23T07:22:05;8.30;99.90
17795;DHT22;9021;50.882;4.326;2022-11-23T07:24:30;8.40;99.90
17795;DHT22;9021;50.882;4.326;2022-11-23T07:26:56;8.20;99.90
17795;DHT22;9021;50.882;4.326;2022-11-23T07:29:22;8.30;99.90
17795;DHT22;9021;50.882;4.326;2022-11-23T07:31:47;8.20;99.90
17795;DHT22;9021;50.882;4.326;2022-11-23T07:34:13;8.10;99.90
17795;DHT22;9021;50.882;4.326;2022-11-23T07:36:39;8.10;99.90
17795;DHT22;9021;50.882;4.326;2022-11-23T07:39:04;8.10;99.90
17795;DHT22;9021;50.882;4.326;2022-11-23T07:41:30;8.30;99.90
17795;DHT22;9021;50.882;4.326;2022-11-23T07:43:56;8.30;99.90
17795;DHT22;9021;50.882;4.326;2022-11-23T07:46:21;8.40;99.90
17795;DHT22;9021;50.882;4.326;2022-11-23T07:48:47;8.30;99.90
17795;DHT22;9021;50.882;4.326;2022-11-23T07:51:13;8.20;99.90
17795;DHT22;9021;50.882;4.326;2022-11-23T07:53:40;8.30;99.90
17795;DHT22;9021;50.882;4.326;2022-11-23T07:56:06;8.30;99.90
17795;DHT22;9021;50.882;4.326;2022-11-23T07:58:32;8.30;99.90
17795;DHT22;9021;50.882;4.326;2022-11-23T08:00:57;8.40;99.90
17795;DHT22;9021;50.882;4.326;2022-11-23T08:03:23;8.40;99.90
17795;DHT22;9021;50.882;4.326;2022-11-23T08:05:49;8.50;99.90
17795;DHT22;9021;50.882;4.326;2022-11-23T08:08:14;8.50;99.90
17795;DHT22;9021;50.882;4.326;2022-11-23T08:10:40;8.50;99.90
17795;DHT22;9021;50.882;4.326;2022-11-23T08:13:06;8.60;99.90
17795;DHT22;9021;50.882;4.326;2022-11-23T08:15:32;8.60;99.90
17795;DHT22;9021;50.882;4.326;2022-11-23T08:17:59;8.60;99.90
17795;DHT22;9021;50.882;4.326;2022-11-23T08:20:27;8.60;99.90
17795;DHT22;9021;50.882;4.326;2022-11-23T08:22:52;8.60;99.90
17795;DHT22;9021;50.882;4.326;2022-11-23T08:25:25;8.60;99.90
17795;DHT22;9021;50.882;4.326;2022-11-23T08:27:59;8.60;99.90
17795;DHT22;9021;50.882;4.326;2022-11-23T08:30:25;8.60;99.90
17795;DHT22;9021;50.882;4.326;2022-11-23T08:32:51;8.80;99.90
17795;DHT22;9021;50.882;4.326;2022-11-23T08:35:17;8.70;99.90
17795;DHT22;9021;50.882;4.326;2022-11-23T08:37:42;8.70;99.90
17795;DHT22;9021;50.882;4.326;2022-11-23T08:40:08;8.70;99.90
17795;DHT22;9021;50.882;4.326;2022-11-23T08:42:34;8.80;99.90
17795;DHT22;9021;50.882;4.326;2022-11-23T08:45:00;8.80;99.90
17795;DHT22;9021;50.882;4.326;2022-11-23T08:47:27;8.80;99.90
17795;DHT22;9021;50.882;4.326;2022-11-23T08:49:53;9.00;99.90
17795;DHT22;9021;50.882;4.326;2022-11-23T08:52:19;9.10;99.90
17795;DHT22;9021;50.882;4.326;2022-11-23T08:54:44;9.20;99.90
17795;DHT22;9021;50.882;4.326;2022-11-23T08:57:10;9.20;99.90
17795;DHT22;9021;50.882;4.326;2022-11-23T08:59:36;9.20;99.90
17795;DHT22;9021;50.882;4.326;2022-11-23T09:02:01;9.30;99.90
17795;DHT22;9021;50.882;4.326;2022-11-23T09:04:27;9.40;99.90
17795;DHT22;9021;50.882;4.326;2022-11-23T09:06:55;9.50;99.90
17795;DHT22;9021;50.882;4.326;2022-11-23T09:09:20;9.60;99.90
17795;DHT22;9021;50.882;4.326;2022-11-23T09:11:46;9.50;99.90
17795;DHT22;9021;50.882;4.326;2022-11-23T09:14:12;9.40;99.90
17795;DHT22;9021;50.882;4.326;2022-11-23T09:16:38;9.20;99.90
17795;DHT22;9021;50.882;4.326;2022-11-23T09:19:04;9.20;99.90
17795;DHT22;9021;50.882;4.326;2022-11-23T09:21:31;9.20;99.90
17795;DHT22;9021;50.882;4.326;2022-11-23T09:24:00;9.30;99.90
17795;DHT22;9021;50.882;4.326;2022-11-23T09:26:26;9.30;99.90
17795;DHT22;9021;50.882;4.326;2022-11-23T09:28:52;9.40;99.90
17795;DHT22;9021;50.882;4.326;2022-11-23T09:31:17;9.40;99.90
17795;DHT22;9021;50.882;4.326;2022-11-23T09:33:43;9.40;99.90
17795;DHT22;9021;50.882;4.326;2022-11-23T09:36:09;9.60;99.90
17795;DHT22;9021;50.882;4.326;2022-11-23T09:38:35;9.60;99.90
17795;DHT22;9021;50.882;4.326;2022-11-23T09:41:35;9.70;99.90
17795;DHT22;9021;50.882;4.326;2022-11-23T09:44:29;9.60;99.90
17795;DHT22;9021;50.882;4.326;2022-11-23T09:49:41;9.70;99.90
17795;DHT22;9021;50.882;4.326;2022-11-23T09:52:16;9.70;99.90
17795;DHT22;9021;50.882;4.326;2022-11-23T09:54:43;9.70;99.90
17795;DHT22;9021;50.882;4.326;2022-11-23T09:57:12;9.80;99.90
17795;DHT22;9021;50.882;4.326;2022-11-23T09:59:42;9.90;99.90
17795;DHT22;9021;50.882;4.326;2022-11-23T10:02:23;10.10;99.90
17795;DHT22;9021;50.882;4.326;2022-11-23T10:04:51;10.10;99.90
17795;DHT22;9021;50.882;4.326;2022-11-23T10:15:52;10.70;99.90
17795;DHT22;9021;50.882;4.326;2022-11-23T10:26:18;11.00;99.90
17795;DHT22;9021;50.882;4.326;2022-11-23T10:28:45;11.10;99.90
17795;DHT22;9021;50.882;4.326;2022-11-23T10:31:22;11.20;99.90
17795;DHT22;9021;50.882;4.326;2022-11-23T10:34:08;11.20;99.90
17795;DHT22;9021;50.882;4.326;2022-11-23T10:36:36;11.20;99.90
17795;DHT22;9021;50.882;4.326;2022-11-23T10:39:22;11.40;99.90
17795;DHT22;9021;50.882;4.326;2022-11-23T10:41:50;11.50;99.90
17795;DHT22;9021;50.882;4.326;2022-11-23T10:44:37;11.70;99.90
17795;DHT22;9021;50.882;4.326;2022-11-23T10:47:03;11.80;99.90
17795;DHT22;9021;50.882;4.326;2022-11-23T10:49:33;11.90;99.90
17795;DHT22;9021;50.882;4.326;2022-11-23T10:52:27;11.90;99.90
17795;DHT22;9021;50.882;4.326;2022-11-23T10:54:55;11.80;99.90
17795;DHT22;9021;50.882;4.326;2022-11-23T10:57:33;11.80;99.90
17795;DHT22;9021;50.882;4.326;2022-11-23T11:02:47;11.90;99.90
17795;DHT22;9021;50.882;4.326;2022-11-23T11:05:29;11.80;99.90
17795;DHT22;9021;50.882;4.326;2022-11-23T11:07:57;11.70;99.90
17795;DHT22;9021;50.882;4.326;2022-11-23T11:10:42;11.50;99.90
17795;DHT22;9021;50.882;4.326;2022-11-23T11:13:41;11.40;99.90
17795;DHT22;9021;50.882;4.326;2022-11-23T11:18:49;11.30;99.90
17795;DHT22;9021;50.882;4.326;2022-11-23T11:21:23;11.40;99.90
17795;DHT22;9021;50.882;4.326;2022-11-23T11:23:54;11.40;99.90
17795;DHT22;9021;50.882;4.326;2022-11-23T11:26:23;11.50;99.90
17795;DHT22;9021;50.882;4.326;2022-11-23T11:28:52;11.80;99.90
17795;DHT22;9021;50.882;4.326;2022-11-23T11:33:59;11.90;99.90
17795;DHT22;9021;50.882;4.326;2022-11-23T11:36:33;11.90;99.90
17795;DHT22;9021;50.882;4.326;2022-11-23T11:39:02;12.00;99.90
17795;DHT22;9021;50.882;4.326;2022-11-23T11:41:29;12.10;99.90
17795;DHT22;9021;50.882;4.326;2022-11-23T11:44:01;12.10;99.90
17795;DHT22;9021;50.882;4.326;2022-11-23T11:46:36;12.10;99.90
17795;DHT22;9021;50.882;4.326;2022-11-23T11:49:27;12.10;99.90
17795;DHT22;9021;50.882;4.326;2022-11-23T11:52:09;12.00;99.90
17795;DHT22;9021;50.882;4.326;2022-11-23T11:57:35;11.90;99.90
17795;DHT22;9021;50.882;4.326;2022-11-23T12:00:06;11.90;99.90
17795;DHT22;9021;50.882;4.326;2022-11-23T12:02:39;11.80;99.90
17795;DHT22;9021;50.882;4.326;2022-11-23T12:05:13;11.80;99.90
17795;DHT22;9021;50.882;4.326;2022-11-23T12:07:49;11.70;99.90
17795;DHT22;9021;50.882;4.326;2022-11-23T12:10:52;11.80;99.90
17795;DHT22;9021;50.882;4.326;2022-11-23T12:13:24;11.80;99.90
17795;DHT22;9021;50.882;4.326;2022-11-23T12:28:59;11.30;99.90
17795;DHT22;9021;50.882;4.326;2022-11-23T12:37:24;11.00;99.90
17795;DHT22;9021;50.882;4.326;2022-11-23T12:45:12;10.90;99.90
17795;DHT22;9021;50.882;4.326;2022-11-23T12:58:45;10.70;99.90
17795;DHT22;9021;50.882;4.326;2022-11-23T13:01:23;10.50;99.90
17795;DHT22;9021;50.882;4.326;2022-11-23T13:09:38;10.40;99.90
17795;DHT22;9021;50.882;4.326;2022-11-23T13:12:16;10.40;99.90
17795;DHT22;9021;50.882;4.326;2022-11-23T13:23:21;10.10;99.90
17795;DHT22;9021;50.882;4.326;2022-11-23T13:26:17;10.10;99.90
17795;DHT22;9021;50.882;4.326;2022-11-23T13:28:44;10.20;99.90
17795;DHT22;9021;50.882;4.326;2022-11-23T13:31:17;10.10;99.90
17795;DHT22;9021;50.882;4.326;2022-11-23T13:33:45;9.90;99.90
17795;DHT22;9021;50.882;4.326;2022-11-23T13:39:01;9.90;99.90
17795;DHT22;9021;50.882;4.326;2022-11-23T13:46:42;9.90;99.90
17795;DHT22;9021;50.882;4.326;2022-11-23T13:55:18;9.70;99.90
17795;DHT22;9021;50.882;4.326;2022-11-23T14:00:57;9.80;99.90
17795;DHT22;9021;50.882;4.326;2022-11-23T14:08:39;9.80;99.90
17795;DHT22;9021;50.882;4.326;2022-11-23T14:11:14;9.70;99.90
17795;DHT22;9021;50.882;4.326;2022-11-23T14:13:52;9.80;99.90
17795;DHT22;9021;50.882;4.326;2022-11-23T14:19:23;9.80;99.90
17795;DHT22;9021;50.882;4.326;2022-11-23T14:22:12;9.80;99.90
17795;DHT22;9021;50.882;4.326;2022-11-23T14:27:55;9.80;99.90
17795;DHT22;9021;50.882;4.326;2022-11-23T14:30:34;9.70;99.90
17795;DHT22;9021;50.882;4.326;2022-11-23T14:36:30;10.00;99.90
17795;DHT22;9021;50.882;4.326;2022-11-23T14:44:55;9.60;99.90
17795;DHT22;9021;50.882;4.326;2022-11-23T14:47:32;9.70;99.90
17795;DHT22;9021;50.882;4.326;2022-11-23T14:50:00;9.80;99.90
17795;DHT22;9021;50.882;4.326;2022-11-23T14:52:35;9.80;99.90
17795;DHT22;9021;50.882;4.326;2022-11-23T14:55:14;9.80;99.90
17795;DHT22;9021;50.882;4.326;2022-11-23T14:57:44;9.90;99.90
17795;DHT22;9021;50.882;4.326;2022-11-23T15:00:31;10.00;99.90
17795;DHT22;9021;50.882;4.326;2022-11-23T15:03:05;10.20;99.90
17795;DHT22;9021;50.882;4.326;2022-11-23T15:05:34;10.10;99.90
17795;DHT22;9021;50.882;4.326;2022-11-23T15:08:27;10.20;99.90
17795;DHT22;9021;50.882;4.326;2022-11-23T15:11:07;10.20;99.90
17795;DHT22;9021;50.882;4.326;2022-11-23T15:13:48;10.30;99.90
17795;DHT22;9021;50.882;4.326;2022-11-23T15:16:15;10.50;99.90
17795;DHT22;9021;50.882;4.326;2022-11-23T15:18:42;10.50;99.90
17795;DHT22;9021;50.882;4.326;2022-11-23T15:23:48;10.30;99.90
17795;DHT22;9021;50.882;4.326;2022-11-23T15:26:17;10.30;99.90
17795;DHT22;9021;50.882;4.326;2022-11-23T15:28:44;10.30;99.90
17795;DHT22;9021;50.882;4.326;2022-11-23T15:31:17;10.40;99.90
17795;DHT22;9021;50.882;4.326;2022-11-23T15:33:52;10.30;99.90
17795;DHT22;9021;50.882;4.326;2022-11-23T15:36:33;10.20;99.90
17795;DHT22;9021;50.882;4.326;2022-11-23T15:39:01;10.20;99.90
17795;DHT22;9021;50.882;4.326;2022-11-23T15:41:29;10.10;99.90
17795;DHT22;9021;50.882;4.326;2022-11-23T15:43:57;10.10;99.90
17795;DHT22;9021;50.882;4.326;2022-11-23T15:46:25;10.10;99.90
17795;DHT22;9021;50.882;4.326;2022-11-23T15:48:53;10.10;99.90
17795;DHT22;9021;50.882;4.326;2022-11-23T15:51:40;10.00;99.90
17795;DHT22;9021;50.882;4.326;2022-11-23T15:54:19;10.00;99.90
17795;DHT22;9021;50.882;4.326;2022-11-23T15:56:48;9.90;99.90
17795;DHT22;9021;50.882;4.326;2022-11-23T15:59:30;9.90;99.90
17795;DHT22;9021;50.882;4.326;2022-11-23T16:01:58;9.80;99.90
17795;DHT22;9021;50.882;4.326;2022-11-23T16:04:27;9.70;99.90
17795;DHT22;9021;50.882;4.326;2022-11-23T16:06:53;9.50;99.90
17795;DHT22;9021;50.882;4.326;2022-11-23T16:12:01;9.60;99.90
17795;DHT22;9021;50.882;4.326;2022-11-23T16:14:28;9.60;99.90
17795;DHT22;9021;50.882;4.326;2022-11-23T16:17:15;9.70;99.90
17795;DHT22;9021;50.882;4.326;2022-11-23T16:19:47;9.70;99.90
17795;DHT22;9021;50.882;4.326;2022-11-23T16:27:45;9.70;99.90
17795;DHT22;9021;50.882;4.326;2022-11-23T16:30:23;9.80;99.90
17795;DHT22;9021;50.882;4.326;2022-11-23T16:32:49;9.80;99.90
17795;DHT22;9021;50.882;4.326;2022-11-23T16:35:17;9.70;99.90
17795;DHT22;9021;50.882;4.326;2022-11-23T16:37:43;9.70;99.90
17795;DHT22;9021;50.882;4.326;2022-11-23T16:40:09;9.70;99.90
17795;DHT22;9021;50.882;4.326;2022-11-23T16:42:35;9.70;99.90
17795;DHT22;9021;50.882;4.326;2022-11-23T16:45:01;9.60;99.90
17795;DHT22;9021;50.882;4.326;2022-11-23T16:47:27;9.60;99.90
17795;DHT22;9021;50.882;4.326;2022-11-23T16:49:54;9.60;99.90
17795;DHT22;9021;50.882;4.326;2022-11-23T16:52:20;9.60;99.90
17795;DHT22;9021;50.882;4.326;2022-11-23T16:54:47;9.60;99.90
17795;DHT22;9021;50.882;4.326;2022-11-23T16:57:17;9.70;99.90
17795;DHT22;9021;50.882;4.326;2022-11-23T16:59:43;9.60;99.90
17795;DHT22;9021;50.882;4.326;2022-11-23T17:02:13;9.60;99.90
17795;DHT22;9021;50.882;4.326;2022-11-23T17:04:40;9.50;99.90
17795;DHT22;9021;50.882;4.326;2022-11-23T17:07:05;9.60;99.90
17795;DHT22;9021;50.882;4.326;2022-11-23T17:09:31;9.60;99.90
17795;DHT22;9021;50.882;4.326;2022-11-23T17:11:57;9.60;99.90
17795;DHT22;9021;50.882;4.326;2022-11-23T17:14:22;9.60;99.90
17795;DHT22;9021;50.882;4.326;2022-11-23T17:16:50;9.60;99.90
17795;DHT22;9021;50.882;4.326;2022-11-23T17:19:20;9.60;99.90
17795;DHT22;9021;50.882;4.326;2022-11-23T17:21:46;9.60;99.90
17795;DHT22;9021;50.882;4.326;2022-11-23T17:24:13;9.70;99.90
17795;DHT22;9021;50.882;4.326;2022-11-23T17:26:46;9.70;99.90
17795;DHT22;9021;50.882;4.326;2022-11-23T17:29:14;9.80;99.90
17795;DHT22;9021;50.882;4.326;2022-11-23T17:31:43;9.80;99.90
17795;DHT22;9021;50.882;4.326;2022-11-23T17:34:13;9.70;99.90
17795;DHT22;9021;50.882;4.326;2022-11-23T17:36:39;9.80;99.90
17795;DHT22;9021;50.882;4.326;2022-11-23T17:39:05;9.80;99.90
17795;DHT22;9021;50.882;4.326;2022-11-23T17:41:31;9.80;99.90
17795;DHT22;9021;50.882;4.326;2022-11-23T17:43:57;9.80;99.90
17795;DHT22;9021;50.882;4.326;2022-11-23T17:46:25;9.70;99.90
17795;DHT22;9021;50.882;4.326;2022-11-23T17:48:56;9.70;99.90
17795;DHT22;9021;50.882;4.326;2022-11-23T17:51:23;9.80;99.90
17795;DHT22;9021;50.882;4.326;2022-11-23T17:53:48;9.90;99.90
17795;DHT22;9021;50.882;4.326;2022-11-23T17:56:17;9.90;99.90
17795;DHT22;9021;50.882;4.326;2022-11-23T17:58:44;9.80;99.90
17795;DHT22;9021;50.882;4.326;2022-11-23T18:01:15;9.80;99.90
17795;DHT22;9021;50.882;4.326;2022-11-23T18:03:42;9.80;99.90
17795;DHT22;9021;50.882;4.326;2022-11-23T18:06:19;9.70;99.90
17795;DHT22;9021;50.882;4.326;2022-11-23T18:08:47;9.80;99.90
17795;DHT22;9021;50.882;4.326;2022-11-23T18:11:13;9.70;99.90
17795;DHT22;9021;50.882;4.326;2022-11-23T18:13:40;9.70;99.90
17795;DHT22;9021;50.882;4.326;2022-11-23T18:16:06;9.80;99.90
17795;DHT22;9021;50.882;4.326;2022-11-23T18:18:33;9.80;99.90
17795;DHT22;9021;50.882;4.326;2022-11-23T18:20:58;9.70;99.90